Latest Weather Observations for St Kilda Harbour RMYS

IDV60901

Issued at 3:31 am EDT Thursday 12 December 2019 (issued every 10 minutes, with the page automatically refreshed every 10 minutes)

About weather observations | Map of Melbourne area stations | Latest observations for Melbourne area | Other Formats
Station Details ID: 086220 Name: ST KILDA HARBOUR - RMYS Lat: -37.86 Lon: 144.96 Height: 6.4 m
Data from the previous 72 hours. | See also: Recent months at St Kilda Harbour RMYS
Date/Time
EDT
Temp
°C
App
Temp
°C
Dew
Point
°C
Rel
Hum
%
Delta-T
°C
Wind Press
QNH
hPa
Press
MSL
hPa
Rain since
9am
mm
Dir  Spd
km/h
Gust
km/h
Spd
kts
Gust
kts
12/03:30am - - - - - SW 22 30 12 16 - - -
12/03:00am - - - - - SW 26 30 14 16 - - -
12/02:30am - - - - - SSW 24 32 13 17 - - -
12/02:00am - - - - - SSW 20 26 11 14 - - -
12/01:30am - - - - - SSW 20 30 11 16 - - -
12/01:00am - - - - - SSW 22 30 12 16 - - -
12/12:30am - - - - - S 19 26 10 14 - - -
12/12:00am - - - - - SSW 22 28 12 15 - - -
 
Date/Time
EDT
Temp
°C
App
Temp
°C
Dew
Point
°C
Rel
Hum
%
Delta-T
°C
Wind Press
QNH
hPa
Press
MSL
hPa
Rain since
9am
mm
Dir  Spd
km/h
Gust
km/h
Spd
kts
Gust
kts
11/11:30pm - - - - - S 24 30 13 16 - - -
11/11:00pm - - - - - S 26 35 14 19 - - -
11/10:30pm - - - - - SSW 30 35 16 19 - - -
11/10:00pm - - - - - S 32 37 17 20 - - -
11/09:30pm - - - - - SSW 30 35 16 19 - - -
11/09:00pm - - - - - SSW 28 33 15 18 - - -
11/08:30pm - - - - - S 24 30 13 16 - - -
11/08:00pm - - - - - S 24 28 13 15 - - -
11/07:30pm - - - - - S 24 28 13 15 - - -
11/07:00pm - - - - - SSW 26 30 14 16 - - -
11/06:30pm - - - - - S 28 35 15 19 - - -
11/06:00pm - - - - - SSW 32 37 17 20 - - -
11/05:30pm - - - - - SSW 35 39 19 21 - - -
11/05:00pm - - - - - SSW 35 43 19 23 - - -
11/04:30pm - - - - - SSW 33 39 18 21 - - -
11/04:00pm - - - - - SSW 33 39 18 21 - - -
11/03:30pm - - - - - SSW 35 39 19 21 - - -
11/03:00pm - - - - - SSW 35 41 19 22 - - -
11/02:30pm - - - - - SSW 33 39 18 21 - - -
11/02:00pm - - - - - SSW 32 37 17 20 - - -
11/01:30pm - - - - - SSW 32 35 17 19 - - -
11/01:00pm - - - - - SSW 30 35 16 19 - - -
11/12:30pm - - - - - SSW 28 35 15 19 - - -
11/12:00pm - - - - - SSW 28 32 15 17 - - -
11/11:30am - - - - - SSW 22 28 12 15 - - -
11/11:00am - - - - - SSW 24 28 13 15 - - -
11/10:30am - - - - - SSW 22 28 12 15 - - -
11/10:00am - - - - - S 20 24 11 13 - - -
11/09:30am - - - - - SSE 20 26 11 14 - - -
11/09:00am - - - - - SSE 22 28 12 15 - - -
11/08:30am - - - - - SSE 19 24 10 13 - - -
11/08:00am - - - - - SSE 19 24 10 13 - - -
11/07:30am - - - - - S 22 30 12 16 - - -
11/07:00am - - - - - S 20 32 11 17 - - -
11/06:30am - - - - - S 20 30 11 16 - - -
11/06:00am - - - - - SSW 20 30 11 16 - - -
11/05:30am - - - - - S 22 30 12 16 - - -
11/05:00am - - - - - S 22 30 12 16 - - -
11/04:30am - - - - - S 22 28 12 15 - - -
11/04:00am - - - - - S 24 35 13 19 - - -
11/03:30am - - - - - SSE 20 28 11 15 - - -
11/03:00am - - - - - SE 20 28 11 15 - - -
11/02:30am - - - - - SSE 20 26 11 14 - - -
11/02:00am - - - - - S 19 24 10 13 - - -
11/01:30am - - - - - SE 19 30 10 16 - - -
11/01:00am - - - - - SSE 20 26 11 14 - - -
11/12:30am - - - - - SSE 20 28 11 15 - - -
11/12:00am - - - - - SSE 22 32 12 17 - - -
 
Date/Time
EDT
Temp
°C
App
Temp
°C
Dew
Point
°C
Rel
Hum
%
Delta-T
°C
Wind Press
QNH
hPa
Press
MSL
hPa
Rain since
9am
mm
Dir  Spd
km/h
Gust
km/h
Spd
kts
Gust
kts
10/11:30pm - - - - - SSE 20 30 11 16 - - -
10/11:00pm - - - - - S 20 26 11 14 - - -
10/10:30pm - - - - - SSE 19 28 10 15 - - -
10/10:00pm - - - - - SSE 20 28 11 15 - - -
10/09:30pm - - - - - SSE 17 24 9 13 - - -
10/09:00pm - - - - - S 26 33 14 18 - - -
10/08:30pm - - - - - S 32 39 17 21 - - -
10/08:00pm - - - - - SSW 33 39 18 21 - - -
10/07:30pm - - - - - SSW 35 43 19 23 - - -
10/07:00pm - - - - - SSW 35 41 19 22 - - -
10/06:30pm - - - - - SSW 35 41 19 22 - - -
10/06:00pm - - - - - SSW 37 44 20 24 - - -
10/05:30pm - - - - - SSW 35 41 19 22 - - -
10/05:00pm - - - - - SSW 33 39 18 21 - - -
10/04:30pm - - - - - SSW 35 39 19 21 - - -
10/04:00pm - - - - - SSW 35 41 19 22 - - -
10/03:30pm - - - - - SSW 35 43 19 23 - - -
10/03:00pm - - - - - SSW 37 43 20 23 - - -
10/02:30pm - - - - - SSW 35 43 19 23 - - -
10/02:00pm - - - - - SSW 35 43 19 23 - - -
10/01:30pm - - - - - SSW 33 41 18 22 - - -
10/01:05pm - - - - - SSW 32 50 17 27 - - -
10/01:00pm - - - - - SSW 35 50 19 27 - - -
10/12:30pm - - - - - SSW 32 39 17 21 - - -
10/12:00pm - - - - - SSW 37 43 20 23 - - -
10/11:30am - - - - - SSW 37 43 20 23 - - -
10/11:00am - - - - - SSW 33 39 18 21 - - -
10/10:30am - - - - - SSW 35 41 19 22 - - -
10/10:00am - - - - - S 32 37 17 20 - - -
10/09:30am - - - - - S 30 33 16 18 - - -
10/09:00am - - - - - S 28 33 15 18 - - -
10/08:30am - - - - - S 26 32 14 17 - - -
10/08:00am - - - - - S 33 46 18 25 - - -
10/07:30am - - - - - S 30 35 16 19 - - -
10/07:00am - - - - - S 32 35 17 19 - - -
10/06:30am - - - - - S 33 37 18 20 - - -
10/06:00am - - - - - SSW 32 35 17 19 - - -
10/05:30am - - - - - SSW 33 39 18 21 - - -
10/05:00am - - - - - SSW 32 37 17 20 - - -
10/04:30am - - - - - SSW 30 35 16 19 - - -
10/04:00am - - - - - S 22 26 12 14 - - -
10/03:30am - - - - - S 28 35 15 19 - - -
10/03:00am - - - - - S 22 28 12 15 - - -
10/02:30am - - - - - SSE 13 20 7 11 - - -
10/02:00am - - - - - SE 19 24 10 13 - - -
10/01:30am - - - - - SSW 28 32 15 17 - - -
10/01:00am - - - - - S 26 30 14 16 - - -
10/12:30am - - - - - SSW 28 33 15 18 - - -
10/12:00am - - - - - S 28 35 15 19 - - -
 
Date/Time
EDT
Temp
°C
App
Temp
°C
Dew
Point
°C
Rel
Hum
%
Delta-T
°C
Wind Press
QNH
hPa
Press
MSL
hPa
Rain since
9am
mm
Dir  Spd
km/h
Gust
km/h
Spd
kts
Gust
kts
09/11:30pm - - - - - S 19 26 10 14 - - -
09/11:00pm - - - - - S 30 37 16 20 - - -
09/10:30pm - - - - - S 35 43 19 23 - - -
09/10:00pm - - - - - S 39 46 21 25 - - -
09/09:30pm - - - - - S 37 44 20 24 - - -
09/09:00pm - - - - - S 39 48 21 26 - - -
09/08:30pm - - - - - SSW 41 52 22 28 - - -
09/08:00pm - - - - - SSW 35 43 19 23 - - -
09/07:30pm - - - - - SSW 52 65 28 35 - - -
09/07:11pm - - - - - SSW 39 59 21 32 - - -
09/07:00pm - - - - - SSW 30 41 16 22 - - -
09/06:30pm - - - - - SSE 32 39 17 21 - - -
09/06:23pm - - - - - S 41 57 22 31 - - -
09/06:12pm - - - - - NW 19 52 10 28 - - -
09/06:11pm - - - - - NW 17 52 9 28 - - -
09/06:00pm - - - - - NNW 15 19 8 10 - - -
09/05:30pm - - - - - SW 4 7 2 4 - - -
09/05:00pm - - - - - SSW 7 17 4 9 - - -
09/04:30pm - - - - - WNW 24 30 13 16 - - -
09/04:00pm - - - - - N 15 24 8 13 - - -
09/03:30pm - - - - - N 22 32 12 17 - - -
09/03:00pm - - - - - WNW 20 32 11 17 - - -
09/02:30pm - - - - - NW 22 41 12 22 - - -
09/02:00pm - - - - - NNW 24 37 13 20 - - -
09/01:30pm - - - - - NNW 28 37 15 20 - - -
09/01:18pm - - - - - NNW 24 46 13 25 - - -
09/01:00pm - - - - - N 28 43 15 23 - - -
09/12:30pm - - - - - N 32 48 17 26 - - -
09/12:00pm - - - - - N 26 39 14 21 - - -
09/11:30am - - - - - N 32 52 17 28 - - -
09/11:22am - - - - - N 32 52 17 28 - - -
09/11:00am - - - - - N 30 46 16 25 - - -
09/10:35am - - - - - N 33 56 18 30 - - -
09/10:30am - - - - - N 28 43 15 23 - - -
09/10:03am - - - - - N 32 50 17 27 - - -
09/10:00am - - - - - N 32 44 17 24 - - -
09/09:30am - - - - - N 22 33 12 18 - - -
09/09:00am - - - - - N 20 30 11 16 - - -
09/08:30am - - - - - NNE 17 26 9 14 - - -
09/08:00am - - - - - NNE 17 24 9 13 - - -
09/07:30am - - - - - NNE 19 28 10 15 - - -
09/07:00am - - - - - NNE 20 26 11 14 - - -
09/06:30am - - - - - NNE 19 24 10 13 - - -
09/06:00am - - - - - NNE 19 22 10 12 - - -
09/05:30am - - - - - NNE 17 24 9 13 - - -
09/05:00am - - - - - NNE 19 26 10 14 - - -
09/04:30am - - - - - NNE 17 22 9 12 - - -
09/04:00am - - - - - NNE 9 15 5 8 - - -

Latest Capital City Observations: Canberra | Sydney | Melbourne | Brisbane | Adelaide | Perth | Hobart | Darwin

Other formats

Comma delimited format used in spreadsheet applications
http://www.bom.gov.au/fwo/IDV60901/IDV60901.95864.axf

JavaScript Object Notation format (JSON) in row-major order
http://www.bom.gov.au/fwo/IDV60901/IDV60901.95864.json

Data quality

Most of these data are generated automatically and are frequently updated. Quality checks on data are not normally performed. It is possible for incorrect values to appear. Refer to information at About Latest Weather Observations and please check the disclaimer before using these data.